Time;durP1;ratioP1;P1;durP2;ratioP2;P2;SDS_P1;SDS_P2;PMS_P1;PMS_P2;Temp;Humidity;BMP_temperature;BMP_pressure;BME280_temperature;BME280_humidity;BME280_pressure;Samples;Min_cycle;Max_cycle;Signal;HPM_P1;HPM_P2
2021/08/20 00:00:56;;;;;;;;;;;;;;;14.21;75.33;99708.22;5054505;28;802;-60
2021/08/20 00:03:23;;;;;;;;;;;;;;;14.23;75.43;99706.63;5054482;28;826;-60
2021/08/20 00:05:49;;;;;;;;;;;;;;;14.24;75.55;99712.94;5054442;28;1886;-60
2021/08/20 00:08:17;;;;;;;;;;;;;;;14.24;75.66;99722.06;5054764;28;877;-60
2021/08/20 00:10:43;;;;;;;;;;;;;;;14.23;75.82;99708.59;5054467;28;818;-60
2021/08/20 00:13:09;;;;;;;;;;;;;;;14.21;75.92;99705.44;5054353;28;870;-60
2021/08/20 00:15:36;;;;;;;;;;;;;;;14.20;76.11;99707.47;5054302;28;1088;-61
2021/08/20 00:18:03;;;;;;;;;;;;;;;14.17;76.20;99707.56;5054232;28;814;-60
2021/08/20 00:20:30;;;;;;;;;;;;;;;14.14;76.53;99709.16;5054183;28;866;-60
2021/08/20 00:22:57;;;;;;;;;;;;;;;14.13;76.42;99707.63;5054102;28;889;-60
2021/08/20 00:25:24;;;;;;;;;;;;;;;14.10;76.55;99700.13;5053958;28;1910;-60
2021/08/20 00:27:51;;;;;;;;;;;;;;;14.07;76.83;99693.44;5054078;28;874;-60
2021/08/20 00:30:17;;;;;;;;;;;;;;;14.05;76.88;99693.06;5053957;28;925;-60
2021/08/20 00:32:44;;;;;;;;;;;;;;;14.06;76.91;99691.88;5053974;28;925;-60
2021/08/20 00:35:10;;;;;;;;;;;;;;;14.01;77.08;99695.16;5053882;28;822;-60
2021/08/20 00:37:37;;;;;;;;;;;;;;;13.96;77.22;99692.88;5053882;28;901;-60
2021/08/20 00:40:05;;;;;;;;;;;;;;;13.90;77.37;99697.38;5035938;28;1192;-60
2021/08/20 00:42:31;;;;;;;;;;;;;;;13.88;77.36;99697.00;5053797;28;827;-60
2021/08/20 00:44:58;;;;;;;;;;;;;;;13.88;77.52;99695.00;5053558;28;1945;-60
2021/08/20 00:47:25;;;;;;;;;;;;;;;13.88;77.44;99702.56;5053720;28;940;-60
2021/08/20 00:49:51;;;;;;;;;;;;;;;13.87;77.40;99696.22;5053647;28;873;-60
2021/08/20 00:52:18;;;;;;;;;;;;;;;13.87;77.64;99698.22;5053463;28;879;-60
2021/08/20 00:54:45;;;;;;;;;;;;;;;13.84;77.76;99699.06;5053476;28;819;-60
2021/08/20 00:57:12;;;;;;;;;;;;;;;13.80;77.76;99701.91;5053497;28;823;-60
2021/08/20 00:59:39;;;;;;;;;;;;;;;13.76;78.15;99705.97;5053738;28;874;-60
2021/08/20 01:02:05;;;;;;;;;;;;;;;13.73;78.31;99702.06;5053378;28;823;-60
2021/08/20 01:04:32;;;;;;;;;;;;;;;13.71;78.33;99704.47;5053390;28;1947;-60
2021/08/20 01:06:59;;;;;;;;;;;;;;;13.68;78.56;99711.69;5053460;28;902;-60
2021/08/20 01:09:26;;;;;;;;;;;;;;;13.65;78.72;99704.19;5053536;28;823;-60
2021/08/20 01:11:52;;;;;;;;;;;;;;;13.62;79.01;99709.81;5035305;28;1258;-60
2021/08/20 01:14:35;;;;;;;;;;;;;;;13.58;79.07;99703.53;5053222;28;883;-60
2021/08/20 01:17:03;;;;;;;;;;;;;;;13.59;79.21;99705.09;5053079;28;1389;-60
2021/08/20 01:19:30;;;;;;;;;;;;;;;13.58;79.05;99706.31;5053168;28;795;-60
2021/08/20 01:21:56;;;;;;;;;;;;;;;13.61;79.14;99709.03;5053043;28;878;-60
2021/08/20 01:24:23;;;;;;;;;;;;;;;13.61;79.20;99706.28;5052870;28;1918;-60
2021/08/20 01:26:51;;;;;;;;;;;;;;;13.61;79.05;99697.94;5052992;28;869;-60
2021/08/20 01:29:19;;;;;;;;;;;;;;;13.62;79.04;99715.38;5052129;28;811;-60
2021/08/20 01:31:44;;;;;;;;;;;;;;;13.60;78.88;99718.56;5052872;28;885;-60
2021/08/20 01:34:11;;;;;;;;;;;;;;;13.59;78.85;99713.44;5052805;28;913;-60
2021/08/20 01:36:38;;;;;;;;;;;;;;;13.57;78.72;99705.56;5052946;28;835;-60
2021/08/20 01:39:05;;;;;;;;;;;;;;;13.52;78.98;99703.25;5052737;28;874;-60
2021/08/20 01:41:32;;;;;;;;;;;;;;;13.50;78.96;99702.09;5052720;28;830;-60
2021/08/20 01:43:59;;;;;;;;;;;;;;;13.47;79.17;99703.75;5052607;28;889;-60
2021/08/20 01:46:26;;;;;;;;;;;;;;;13.50;79.03;99696.56;5052492;28;1955;-60
2021/08/20 01:48:53;;;;;;;;;;;;;;;13.51;78.87;99695.38;5034749;28;1550;-60
2021/08/20 01:51:24;;;;;;;;;;;;;;;13.49;79.09;99698.56;5052457;28;823;-60
2021/08/20 01:53:51;;;;;;;;;;;;;;;13.45;79.04;99701.38;5052401;28;866;-60
2021/08/20 01:56:27;;;;;;;;;;;;;;;13.46;79.37;99699.38;5052359;28;843;-60
2021/08/20 01:58:55;;;;;;;;;;;;;;;13.48;79.13;99699.75;5052293;28;815;-60
2021/08/20 02:01:22;;;;;;;;;;;;;;;13.45;79.06;99700.63;5052288;28;1013;-60
2021/08/20 02:03:49;;;;;;;;;;;;;;;13.44;79.36;99701.81;5034302;28;1319;-60
2021/08/20 02:06:15;;;;;;;;;;;;;;;13.42;79.29;99701.44;5052323;28;1877;-60
2021/08/20 02:08:42;;;;;;;;;;;;;;;13.39;79.43;99694.75;5052157;28;882;-60
2021/08/20 02:11:10;;;;;;;;;;;;;;;13.39;79.38;99700.31;5052070;28;893;-60
2021/08/20 02:13:35;;;;;;;;;;;;;;;13.34;79.54;99692.47;5052025;28;890;-60
2021/08/20 02:16:02;;;;;;;;;;;;;;;13.31;79.45;99690.53;5052097;28;1348;-60
2021/08/20 02:18:28;;;;;;;;;;;;;;;13.32;79.62;99697.66;5052018;28;855;-60
2021/08/20 02:20:55;;;;;;;;;;;;;;;13.26;79.44;99700.09;5051880;28;814;-60
2021/08/20 02:23:21;;;;;;;;;;;;;;;13.23;79.85;99694.63;5051845;28;838;-60
2021/08/20 02:25:47;;;;;;;;;;;;;;;13.21;79.91;99697.81;5051753;28;1909;-60
2021/08/20 02:28:14;;;;;;;;;;;;;;;13.20;80.02;99698.25;5051819;28;862;-60
2021/08/20 02:30:40;;;;;;;;;;;;;;;13.16;79.90;99703.06;5052004;28;818;-60
2021/08/20 02:33:07;;;;;;;;;;;;;;;13.14;80.12;99713.81;5033963;28;1423;-60
2021/08/20 02:35:34;;;;;;;;;;;;;;;13.15;80.24;99712.63;5051667;28;826;-60
2021/08/20 02:38:00;;;;;;;;;;;;;;;13.15;80.18;99718.94;5051718;28;893;-60
2021/08/20 02:40:27;;;;;;;;;;;;;;;13.13;79.97;99707.47;5051640;28;823;-60
2021/08/20 02:42:54;;;;;;;;;;;;;;;13.13;79.85;99706.69;5051560;28;862;-60
2021/08/20 02:45:20;;;;;;;;;;;;;;;13.13;79.89;99709.47;5051541;28;1983;-60
2021/08/20 02:47:47;;;;;;;;;;;;;;;13.14;79.95;99716.56;5051571;28;862;-60
2021/08/20 02:50:14;;;;;;;;;;;;;;;13.14;80.21;99719.34;5051550;28;868;-60
2021/08/20 02:52:41;;;;;;;;;;;;;;;13.16;80.29;99706.63;5051416;28;874;-60
2021/08/20 02:55:07;;;;;;;;;;;;;;;13.19;79.99;99716.13;5051403;28;1028;-60
2021/08/20 02:57:33;;;;;;;;;;;;;;;13.18;80.15;99720.84;5051468;28;846;-60
2021/08/20 03:00:00;;;;;;;;;;;;;;;13.15;80.39;99721.72;5051444;28;858;-60
2021/08/20 03:02:26;;;;;;;;;;;;;;;13.10;80.06;99722.22;5051400;28;878;-60
2021/08/20 03:04:53;;;;;;;;;;;;;;;13.06;80.52;99713.94;5051481;28;1882;-60
2021/08/20 03:07:19;;;;;;;;;;;;;;;13.04;80.46;99716.34;5051303;28;875;-60
2021/08/20 03:09:46;;;;;;;;;;;;;;;13.06;79.98;99715.94;5033438;28;1393;-60
2021/08/20 03:12:13;;;;;;;;;;;;;;;13.06;80.26;99719.47;5051673;28;838;-60
2021/08/20 03:14:39;;;;;;;;;;;;;;;13.08;80.17;99719.06;5051170;28;933;-60
2021/08/20 03:17:06;;;;;;;;;;;;;;;13.10;80.19;99722.22;5051106;28;1403;-60
2021/08/20 03:19:32;;;;;;;;;;;;;;;13.06;80.26;99718.72;5051439;28;890;-60
2021/08/20 03:21:58;;;;;;;;;;;;;;;13.03;80.13;99720.31;5051280;28;925;-60
2021/08/20 03:24:26;;;;;;;;;;;;;;;13.00;80.34;99720.38;5051094;28;1980;-60
2021/08/20 03:26:52;;;;;;;;;;;;;;;12.97;80.41;99724.00;5051236;28;866;-60
2021/08/20 03:29:19;;;;;;;;;;;;;;;12.97;80.26;99724.78;5051132;28;901;-60
2021/08/20 03:31:46;;;;;;;;;;;;;;;12.99;80.41;99733.44;5051167;28;815;-60
2021/08/20 03:34:13;;;;;;;;;;;;;;;12.99;80.30;99733.44;5051212;28;851;-60
2021/08/20 03:36:39;;;;;;;;;;;;;;;13.02;80.31;99731.84;5051040;28;861;-60
2021/08/20 03:39:05;;;;;;;;;;;;;;;13.04;80.37;99732.22;5051190;28;806;-60
2021/08/20 03:41:32;;;;;;;;;;;;;;;13.05;80.03;99737.31;5051099;28;850;-60
2021/08/20 03:43:59;;;;;;;;;;;;;;;13.08;79.99;99735.72;5051133;28;862;-60
2021/08/20 03:46:25;;;;;;;;;;;;;;;13.16;79.91;99742.69;5051140;28;1882;-60
2021/08/20 03:48:52;;;;;;;;;;;;;;;13.19;79.78;99741.09;5051177;28;878;-60
2021/08/20 03:51:19;;;;;;;;;;;;;;;13.21;79.42;99744.22;5051307;28;799;-60
2021/08/20 03:53:46;;;;;;;;;;;;;;;13.22;79.51;99752.09;5054331;28;798;-60
2021/08/20 03:56:12;;;;;;;;;;;;;;;13.25;79.23;99753.28;5054900;28;835;-60
2021/08/20 03:58:39;;;;;;;;;;;;;;;13.30;79.30;99752.81;5055111;28;854;-60
2021/08/20 04:01:06;;;;;;;;;;;;;;;13.40;79.00;99753.81;5054916;28;838;-60
2021/08/20 04:03:33;;;;;;;;;;;;;;;13.52;78.70;99756.00;5054586;28;877;-60
2021/08/20 04:06:00;;;;;;;;;;;;;;;13.62;78.32;99760.59;5054482;28;1882;-60
2021/08/20 04:08:25;;;;;;;;;;;;;;;13.69;77.94;99762.44;5054451;28;838;-60
2021/08/20 04:10:52;;;;;;;;;;;;;;;13.73;77.61;99756.84;5054434;28;933;-60
2021/08/20 04:13:19;;;;;;;;;;;;;;;13.81;77.55;99761.06;5054334;28;850;-60
2021/08/20 04:15:45;;;;;;;;;;;;;;;13.88;77.05;99753.34;5054447;28;1146;-60
2021/08/20 04:18:12;;;;;;;;;;;;;;;13.98;76.82;99765.47;5054289;28;827;-60
2021/08/20 04:20:39;;;;;;;;;;;;;;;14.06;76.43;99766.91;5054261;28;834;-60
2021/08/20 04:23:06;;;;;;;;;;;;;;;14.15;76.24;99771.13;5054118;28;819;-60
2021/08/20 04:25:33;;;;;;;;;;;;;;;14.24;75.99;99774.09;5054035;28;1910;-60
2021/08/20 04:28:00;;;;;;;;;;;;;;;14.30;75.87;99778.72;5054078;28;881;-60
2021/08/20 04:30:30;;;;;;;;;;;;;;;14.38;75.77;99773.00;5054024;28;882;-60
2021/08/20 04:32:57;;;;;;;;;;;;;;;14.46;75.22;99769.66;5054007;28;998;-60
2021/08/20 04:35:24;;;;;;;;;;;;;;;14.57;74.89;99763.88;5054043;28;818;-60
2021/08/20 04:37:50;;;;;;;;;;;;;;;14.72;74.53;99769.91;5054619;28;759;-60
2021/08/20 04:40:16;;;;;;;;;;;;;;;14.89;73.92;99767.94;5054054;28;803;-60
2021/08/20 04:42:46;;;;;;;;;;;;;;;15.05;73.69;99775.53;5053799;28;850;-60
2021/08/20 04:45:15;;;;;;;;;;;;;;;15.23;72.94;99784.22;5054268;28;1951;-60
2021/08/20 04:47:43;;;;;;;;;;;;;;;15.41;72.80;99780.25;5053244;28;845;-61
2021/08/20 04:50:09;;;;;;;;;;;;;;;15.60;72.27;99781.38;5053620;28;830;-60
2021/08/20 04:52:36;;;;;;;;;;;;;;;15.76;71.57;99784.13;5053193;28;894;-60
2021/08/20 04:55:03;;;;;;;;;;;;;;;15.88;71.11;99782.63;5053691;28;913;-60
2021/08/20 04:57:30;;;;;;;;;;;;;;;16.01;70.57;99780.69;5053322;28;810;-61
2021/08/20 04:59:58;;;;;;;;;;;;;;;16.20;70.34;99792.91;5053734;28;965;-60
2021/08/20 05:02:24;;;;;;;;;;;;;;;16.40;69.62;99784.34;5053531;28;854;-60
2021/08/20 05:04:51;;;;;;;;;;;;;;;16.55;69.23;99787.50;5051945;28;1906;-60
2021/08/20 05:07:17;;;;;;;;;;;;;;;16.71;68.64;99789.44;5053737;28;827;-60
2021/08/20 05:15:06;;;;;;;;;;;;;;;17.19;66.69;99790.34;5969661;22;1508;-60
2021/08/20 05:17:33;;;;;;;;;;;;;;;17.31;66.17;99786.00;5033491;28;849;-60
2021/08/20 05:19:59;;;;;;;;;;;;;;;17.55;65.77;99783.59;5033189;28;893;-60
2021/08/20 05:22:26;;;;;;;;;;;;;;;17.82;64.52;99779.50;5033325;28;1228;-60
2021/08/20 05:24:52;;;;;;;;;;;;;;;18.01;64.07;99783.25;5033223;28;1906;-60
2021/08/20 05:27:19;;;;;;;;;;;;;;;18.26;63.16;99779.53;5033114;28;838;-60
2021/08/20 05:30:01;;;;;;;;;;;;;;;18.61;62.43;99779.47;5032106;28;1313;-60
2021/08/20 05:32:28;;;;;;;;;;;;;;;18.93;61.47;99781.81;5032932;28;1082;-60
2021/08/20 05:34:54;;;;;;;;;;;;;;;19.40;60.46;99779.94;5032919;28;806;-60
2021/08/20 05:37:21;;;;;;;;;;;;;;;20.20;58.48;99778.09;5032844;28;857;-60
2021/08/20 05:39:48;;;;;;;;;;;;;;;21.18;55.86;99778.75;5032967;28;811;-60
2021/08/20 05:42:14;;;;;;;;;;;;;;;21.99;53.57;99772.28;5032799;28;909;-60
2021/08/20 05:44:40;;;;;;;;;;;;;;;22.35;52.45;99776.03;5032806;28;1906;-60
2021/08/20 05:47:07;;;;;;;;;;;;;;;22.22;52.31;99776.34;5032515;28;907;-59
2021/08/20 05:49:34;;;;;;;;;;;;;;;22.20;52.30;99784.44;5032762;28;889;-60
2021/08/20 05:52:01;;;;;;;;;;;;;;;22.73;51.46;99773.63;5014908;28;861;-60
2021/08/20 05:54:27;;;;;;;;;;;;;;;23.37;49.59;99777.66;5032506;28;846;-60
2021/08/20 05:56:54;;;;;;;;;;;;;;;24.24;47.61;99783.34;5014947;28;806;-59
2021/08/20 05:59:21;;;;;;;;;;;;;;;25.32;45.68;99782.19;5032525;28;846;-60
2021/08/20 06:01:47;;;;;;;;;;;;;;;26.46;43.77;99786.97;5032359;28;849;-60
2021/08/20 06:04:14;;;;;;;;;;;;;;;27.33;42.14;99782.31;5032390;28;870;-60
2021/08/20 06:06:41;;;;;;;;;;;;;;;28.04;40.43;99786.72;5031595;28;1921;-61
2021/08/20 06:09:08;;;;;;;;;;;;;;;28.74;38.47;99787.25;5032372;28;877;-61
2021/08/20 06:11:35;;;;;;;;;;;;;;;29.09;37.71;99786.47;5032384;28;802;-61
2021/08/20 06:14:02;;;;;;;;;;;;;;;29.46;36.89;99789.94;5032089;28;1021;-61
2021/08/20 06:16:30;;;;;;;;;;;;;;;29.85;36.30;99795.22;5043073;28;1254;-60
2021/08/20 06:18:56;;;;;;;;;;;;;;;30.02;35.73;99786.44;5051983;28;1039;-60
2021/08/20 06:21:23;;;;;;;;;;;;;;;30.26;35.07;99788.41;5052028;28;803;-60
2021/08/20 06:23:50;;;;;;;;;;;;;;;30.32;34.84;99792.00;5051837;28;822;-61
2021/08/20 06:26:18;;;;;;;;;;;;;;;30.59;34.16;99794.94;5051884;28;1910;-60
2021/08/20 06:28:44;;;;;;;;;;;;;;;30.94;33.95;99798.81;5051845;28;947;-60
2021/08/20 06:31:11;;;;;;;;;;;;;;;31.16;33.81;99803.34;5051749;28;823;-61
2021/08/20 06:33:37;;;;;;;;;;;;;;;31.23;33.21;99790.50;5051808;28;870;-61
2021/08/20 06:36:05;;;;;;;;;;;;;;;31.02;33.10;99799.69;5034071;28;931;-60
2021/08/20 06:38:31;;;;;;;;;;;;;;;31.16;32.99;99794.78;5051583;28;858;-61
2021/08/20 06:40:57;;;;;;;;;;;;;;;31.49;32.27;99796.25;5051669;28;799;-61
2021/08/20 06:43:25;;;;;;;;;;;;;;;32.07;31.93;99800.25;5051656;28;779;-61
2021/08/20 06:45:52;;;;;;;;;;;;;;;32.47;31.21;99817.25;5050871;28;1954;-61
2021/08/20 06:48:18;;;;;;;;;;;;;;;33.02;30.47;99809.97;5051493;28;846;-62
2021/08/20 06:50:45;;;;;;;;;;;;;;;33.19;29.54;99809.56;5051506;28;977;-61
2021/08/20 06:53:11;;;;;;;;;;;;;;;33.01;29.91;99814.94;5051465;28;810;-62
2021/08/20 06:55:38;;;;;;;;;;;;;;;33.13;29.50;99807.59;5051149;28;787;-62
2021/08/20 06:58:05;;;;;;;;;;;;;;;33.22;28.90;99808.41;5051663;28;802;-61
2021/08/20 07:00:30;;;;;;;;;;;;;;;33.09;29.03;99812.91;5051225;28;966;-62
2021/08/20 07:02:56;;;;;;;;;;;;;;;33.20;28.96;99808.22;5051605;28;815;-62
2021/08/20 07:05:22;;;;;;;;;;;;;;;33.77;28.41;99813.94;5051339;28;1960;-61
2021/08/20 07:07:48;;;;;;;;;;;;;;;33.91;27.44;99821.06;5022687;28;1396;-62
2021/08/20 07:10:15;;;;;;;;;;;;;;;33.90;27.50;99819.53;5036703;28;1286;-61
2021/08/20 07:12:41;;;;;;;;;;;;;;;34.12;26.90;99815.25;5034094;28;1294;-62
2021/08/20 07:15:07;;;;;;;;;;;;;;;33.89;26.84;99817.25;5031477;28;1156;-61
2021/08/20 07:17:33;;;;;;;;;;;;;;;33.21;25.70;99809.75;5031803;28;873;-61
2021/08/20 07:19:59;;;;;;;;;;;;;;;33.24;26.18;99815.13;5031651;28;869;-61
2021/08/20 07:22:25;;;;;;;;;;;;;;;33.06;26.21;99819.75;5031377;28;862;-62
2021/08/20 07:24:51;;;;;;;;;;;;;;;33.19;25.63;99809.56;5031455;28;2028;-62
2021/08/20 07:27:18;;;;;;;;;;;;;;;33.03;25.70;99817.22;5032220;28;906;-62
2021/08/20 07:29:45;;;;;;;;;;;;;;;32.91;25.35;99822.47;5035239;28;869;-61
2021/08/20 07:32:11;;;;;;;;;;;;;;;32.81;26.25;99815.69;5035250;28;818;-61
2021/08/20 07:34:38;;;;;;;;;;;;;;;32.89;25.02;99822.28;5035311;28;873;-62
2021/08/20 07:37:06;;;;;;;;;;;;;;;32.69;25.85;99818.06;5034510;28;819;-61
2021/08/20 07:39:36;;;;;;;;;;;;;;;33.01;26.51;99817.00;5017575;28;913;-61
2021/08/20 07:42:03;;;;;;;;;;;;;;;33.24;25.55;99812.25;5035198;28;925;-61
2021/08/20 07:44:29;;;;;;;;;;;;;;;33.07;25.64;99820.53;5034658;28;1894;-61
2021/08/20 07:46:56;;;;;;;;;;;;;;;32.79;25.08;99813.41;5034067;28;882;-61
2021/08/20 07:49:23;;;;;;;;;;;;;;;32.64;25.51;99816.88;5034794;28;1017;-62
2021/08/20 07:51:49;;;;;;;;;;;;;;;32.64;25.36;99808.31;5034811;28;922;-61
2021/08/20 07:54:16;;;;;;;;;;;;;;;32.99;25.58;99814.72;5017117;28;1192;-61
2021/08/20 07:56:41;;;;;;;;;;;;;;;33.21;25.02;99810.53;5034830;28;920;-61
2021/08/20 07:59:08;;;;;;;;;;;;;;;33.18;25.34;99819.47;5034756;28;866;-61
2021/08/20 08:01:35;;;;;;;;;;;;;;;32.92;24.86;99812.56;5034736;28;866;-62
2021/08/20 08:04:01;;;;;;;;;;;;;;;32.74;25.77;99811.44;5034599;28;873;-61
2021/08/20 08:06:28;;;;;;;;;;;;;;;32.92;25.73;99809.69;5016752;28;1893;-61
2021/08/20 08:08:55;;;;;;;;;;;;;;;33.21;25.23;99807.66;5034601;28;862;-60
2021/08/20 08:11:22;;;;;;;;;;;;;;;33.36;24.20;99799.16;5034543;28;854;-61
2021/08/20 08:13:48;;;;;;;;;;;;;;;32.67;25.02;99804.34;5034304;28;1086;-61
2021/08/20 08:16:15;;;;;;;;;;;;;;;32.85;25.03;99799.72;5034283;28;1229;-61
2021/08/20 08:18:42;;;;;;;;;;;;;;;32.81;25.04;99792.81;5034327;28;870;-61
2021/08/20 08:21:09;;;;;;;;;;;;;;;32.67;24.73;99797.84;5034331;28;870;-61
2021/08/20 08:23:35;;;;;;;;;;;;;;;32.62;24.15;99805.22;5034272;28;850;-62
2021/08/20 08:26:02;;;;;;;;;;;;;;;32.53;24.74;99797.13;5034292;28;1976;-62
2021/08/20 08:28:28;;;;;;;;;;;;;;;32.47;24.85;99811.53;5034203;28;811;-62
2021/08/20 08:30:55;;;;;;;;;;;;;;;32.85;25.40;99807.53;5034140;28;980;-62
2021/08/20 08:33:22;;;;;;;;;;;;;;;33.04;24.77;99808.06;5034106;28;823;-62
2021/08/20 08:35:49;;;;;;;;;;;;;;;33.29;23.80;99810.59;5016325;28;1274;-62
2021/08/20 08:38:16;;;;;;;;;;;;;;;33.07;23.40;99803.34;5033849;28;857;-61
2021/08/20 08:40:46;;;;;;;;;;;;;;;33.01;23.33;99799.84;5034009;28;858;-62
2021/08/20 08:43:13;;;;;;;;;;;;;;;33.11;22.20;99798.03;5034021;28;855;-62
2021/08/20 08:45:40;;;;;;;;;;;;;;;33.01;22.15;99800.63;5033765;28;1894;-61
2021/08/20 08:48:11;;;;;;;;;;;;;;;33.03;22.88;99806.56;5033816;28;946;-61
2021/08/20 08:50:38;;;;;;;;;;;;;;;33.02;22.47;99793.56;5033751;28;878;-61
2021/08/20 08:53:05;;;;;;;;;;;;;;;33.02;23.20;99804.25;5033759;28;791;-62
2021/08/20 08:55:31;;;;;;;;;;;;;;;33.04;23.75;99795.88;5033773;28;819;-62
2021/08/20 08:57:58;;;;;;;;;;;;;;;32.76;23.89;99791.63;5033646;28;791;-62
2021/08/20 09:00:31;;;;;;;;;;;;;;;32.54;23.99;99798.69;5033930;28;810;-62
2021/08/20 09:02:58;;;;;;;;;;;;;;;32.75;23.80;99790.88;5033772;28;807;-62
2021/08/20 09:05:25;;;;;;;;;;;;;;;32.66;23.05;99787.72;5033678;28;1926;-63
2021/08/20 09:07:54;;;;;;;;;;;;;;;32.16;23.72;99793.31;5033733;28;855;-63
2021/08/20 09:10:21;;;;;;;;;;;;;;;31.79;23.37;99800.81;5033448;28;1175;-63
2021/08/20 09:12:52;;;;;;;;;;;;;;;31.64;24.43;99789.19;5033178;28;854;-62
2021/08/20 09:15:21;;;;;;;;;;;;;;;31.40;24.76;99779.50;5033367;28;1143;-61
2021/08/20 09:17:48;;;;;;;;;;;;;;;31.70;24.45;99787.75;5033358;28;830;-62
2021/08/20 09:20:21;;;;;;;;;;;;;;;32.00;25.07;99775.19;5033281;28;802;-62
2021/08/20 09:22:48;;;;;;;;;;;;;;;32.37;24.31;99781.91;5033542;28;858;-62
2021/08/20 09:25:34;;;;;;;;;;;;;;;32.46;24.32;99772.06;5033047;28;1913;-63
2021/08/20 09:28:13;;;;;;;;;;;;;;;32.00;25.29;99780.16;5033299;28;881;-62
2021/08/20 09:30:56;;;;;;;;;;;;;;;32.02;25.29;99783.97;5032961;28;905;-62
2021/08/20 09:33:23;;;;;;;;;;;;;;;31.89;24.93;99781.91;5034035;28;790;-61
2021/08/20 09:36:01;;;;;;;;;;;;;;;32.24;25.16;99781.94;5033045;28;1079;-61
2021/08/20 09:38:29;;;;;;;;;;;;;;;32.09;24.35;99782.53;5032880;28;822;-62
2021/08/20 09:40:59;;;;;;;;;;;;;;;31.16;25.25;99783.34;5032703;28;819;-62
2021/08/20 09:43:36;;;;;;;;;;;;;;;30.72;25.46;99777.84;5032791;28;811;-62
2021/08/20 09:46:06;;;;;;;;;;;;;;;29.87;26.40;99777.56;5032867;28;1882;-63
2021/08/20 09:48:39;;;;;;;;;;;;;;;29.63;26.72;99775.53;5032731;28;819;-63
2021/08/20 09:51:06;;;;;;;;;;;;;;;29.58;26.97;99765.75;5032192;28;866;-62
2021/08/20 09:53:33;;;;;;;;;;;;;;;30.08;26.39;99772.09;5032572;28;870;-62
2021/08/20 09:56:01;;;;;;;;;;;;;;;30.30;25.48;99768.19;5032586;28;834;-62
2021/08/20 09:58:31;;;;;;;;;;;;;;;30.41;25.83;99764.41;5032560;28;806;-63
2021/08/20 10:01:00;;;;;;;;;;;;;;;30.52;25.61;99776.38;5032440;28;846;-63
2021/08/20 10:03:27;;;;;;;;;;;;;;;30.58;25.34;99767.75;5032660;28;870;-62
2021/08/20 10:05:55;;;;;;;;;;;;;;;30.47;25.81;99767.91;5032302;28;1915;-62
2021/08/20 10:08:22;;;;;;;;;;;;;;;30.76;25.42;99759.66;5032325;28;866;-62
2021/08/20 10:10:49;;;;;;;;;;;;;;;31.22;25.37;99749.75;5032186;28;926;-62
2021/08/20 10:13:17;;;;;;;;;;;;;;;31.64;24.66;99752.06;5032469;28;930;-62
2021/08/20 10:15:44;;;;;;;;;;;;;;;31.72;24.51;99755.78;5032166;28;1199;-64
2021/08/20 10:18:13;;;;;;;;;;;;;;;30.95;24.25;99757.53;5032178;28;834;-63
2021/08/20 10:20:40;;;;;;;;;;;;;;;30.70;24.49;99757.69;5032158;28;811;-64
2021/08/20 10:23:09;;;;;;;;;;;;;;;30.50;24.75;99755.44;5032248;28;795;-62
2021/08/20 10:25:37;;;;;;;;;;;;;;;30.45;25.07;99750.56;5031997;28;1914;-63
2021/08/20 10:28:04;;;;;;;;;;;;;;;30.56;24.99;99750.41;5032036;28;869;-64
2021/08/20 10:30:32;;;;;;;;;;;;;;;30.45;24.74;99756.28;5014261;28;1276;-63
2021/08/20 10:33:03;;;;;;;;;;;;;;;30.59;25.30;99754.25;5031985;28;831;-62
2021/08/20 10:35:48;;;;;;;;;;;;;;;30.97;24.63;99749.19;5031927;28;890;-63
2021/08/20 10:38:34;;;;;;;;;;;;;;;30.57;24.29;99749.06;5031765;28;851;-63
2021/08/20 10:41:16;;;;;;;;;;;;;;;30.46;24.95;99738.63;5031744;28;882;-64
2021/08/20 10:44:01;;;;;;;;;;;;;;;30.26;24.96;99754.22;5031727;28;811;-64
2021/08/20 10:46:34;;;;;;;;;;;;;;;30.46;24.80;99752.13;5031638;28;1890;-63
2021/08/20 10:51:48;;;;;;;;;;;;;;;30.86;25.23;99750.16;5031617;28;807;-64
2021/08/20 10:54:16;;;;;;;;;;;;;;;30.86;23.84;99741.59;5032064;28;810;-63
2021/08/20 10:56:43;;;;;;;;;;;;;;;30.89;23.83;99746.22;5031800;28;861;-63
2021/08/20 10:59:30;;;;;;;;;;;;;;;31.04;23.60;99737.13;5031829;28;811;-63
2021/08/20 11:02:14;;;;;;;;;;;;;;;31.56;24.08;99736.91;5030823;28;1593;-63
2021/08/20 11:04:57;;;;;;;;;;;;;;;31.93;23.93;99735.84;5031435;28;1942;-63
2021/08/20 11:07:42;;;;;;;;;;;;;;;31.95;22.56;99724.63;5031502;28;893;-64
2021/08/20 11:10:09;;;;;;;;;;;;;;;31.45;23.87;99727.28;5031504;28;933;-63
2021/08/20 11:12:53;;;;;;;;;;;;;;;31.62;23.86;99726.91;5031517;28;885;-63
2021/08/20 11:15:26;;;;;;;;;;;;;;;32.18;24.02;99710.59;5031408;28;1334;-64
2021/08/20 11:18:03;;;;;;;;;;;;;;;32.65;22.87;99720.41;5031489;28;795;-63
2021/08/20 11:20:36;;;;;;;;;;;;;;;33.17;23.10;99714.88;5031523;28;918;-63
2021/08/20 11:23:14;;;;;;;;;;;;;;;33.66;22.40;99717.59;5031395;28;803;-63
2021/08/20 11:25:44;;;;;;;;;;;;;;;34.18;20.98;99720.44;5031303;28;1910;-64
2021/08/20 11:28:18;;;;;;;;;;;;;;;33.81;21.44;99711.16;5031630;28;811;-63
2021/08/20 11:30:54;;;;;;;;;;;;;;;33.32;22.10;99714.94;5031333;28;857;-63
2021/08/20 11:33:21;;;;;;;;;;;;;;;32.63;23.15;99700.94;5031310;28;875;-63
2021/08/20 11:35:49;;;;;;;;;;;;;;;32.48;22.84;99712.22;5031253;28;810;-63
2021/08/20 11:38:27;;;;;;;;;;;;;;;32.27;22.92;99701.53;5031163;28;882;-63
2021/08/20 11:40:54;;;;;;;;;;;;;;;32.46;23.05;99694.84;5031224;28;862;-63
2021/08/20 11:43:22;;;;;;;;;;;;;;;32.89;22.82;99699.19;5031187;28;798;-64
2021/08/20 11:46:09;;;;;;;;;;;;;;;32.72;22.13;99694.69;5030967;28;1949;-64
2021/08/20 11:48:46;;;;;;;;;;;;;;;32.46;22.78;99697.72;5031041;28;1666;-64
2021/08/20 11:51:14;;;;;;;;;;;;;;;32.47;23.47;99693.50;5031068;28;835;-63
2021/08/20 11:53:46;;;;;;;;;;;;;;;32.89;22.61;99696.34;5031139;28;823;-63
2021/08/20 11:56:14;;;;;;;;;;;;;;;32.97;22.78;99697.16;5031223;28;877;-63
2021/08/20 11:58:41;;;;;;;;;;;;;;;33.69;22.12;99687.84;5031120;28;819;-63
2021/08/20 12:01:20;;;;;;;;;;;;;;;34.36;21.88;99684.16;5031004;28;874;-64
2021/08/20 12:03:48;;;;;;;;;;;;;;;34.03;21.68;99686.75;5031296;28;807;-63
2021/08/20 12:06:15;;;;;;;;;;;;;;;34.38;22.07;99687.22;5030897;28;1906;-63
2021/08/20 12:08:43;;;;;;;;;;;;;;;34.56;21.41;99679.53;5030852;28;881;-63
2021/08/20 12:11:10;;;;;;;;;;;;;;;34.67;21.42;99687.78;5031075;28;791;-62
2021/08/20 12:13:50;;;;;;;;;;;;;;;34.22;21.51;99695.03;5032159;28;858;-62
2021/08/20 12:16:36;;;;;;;;;;;;;;;32.65;22.73;99686.81;5034408;28;1265;-63
2021/08/20 12:19:23;;;;;;;;;;;;;;;31.39;24.45;99686.63;5034303;28;925;-62
2021/08/20 12:21:51;;;;;;;;;;;;;;;30.05;25.72;99682.78;5034412;28;870;-62
2021/08/20 12:24:30;;;;;;;;;;;;;;;29.90;26.67;99686.09;5034567;28;885;-62
2021/08/20 12:27:16;;;;;;;;;;;;;;;31.43;25.44;99681.38;5034327;28;814;-63
2021/08/20 12:29:43;;;;;;;;;;;;;;;33.10;23.76;99682.00;5034179;28;838;-63
2021/08/20 12:32:19;;;;;;;;;;;;;;;34.23;21.99;99678.59;5034167;28;991;-64
2021/08/20 12:34:55;;;;;;;;;;;;;;;34.52;21.22;99682.03;5034167;28;886;-63
2021/08/20 12:37:21;;;;;;;;;;;;;;;34.98;20.80;99682.00;5034158;28;838;-63
2021/08/20 12:39:48;;;;;;;;;;;;;;;35.57;19.33;99678.78;5034035;28;826;-61
2021/08/20 12:42:24;;;;;;;;;;;;;;;35.77;20.16;99673.31;5033972;28;799;-61
2021/08/20 12:45:05;;;;;;;;;;;;;;;35.80;21.85;99668.50;5034226;28;1914;-61
2021/08/20 12:47:32;;;;;;;;;;;;;;;35.48;22.68;99675.75;5034040;28;782;-61
2021/08/20 12:50:04;;;;;;;;;;;;;;;35.16;23.09;99666.50;5033977;28;818;-60
2021/08/20 12:52:31;;;;;;;;;;;;;;;34.83;23.40;99671.31;5033987;28;798;-63
2021/08/20 12:54:58;;;;;;;;;;;;;;;34.68;23.87;99677.09;5033693;28;853;-60
2021/08/20 12:57:25;;;;;;;;;;;;;;;34.63;23.83;99681.69;5033734;28;881;-60
2021/08/20 13:00:03;;;;;;;;;;;;;;;34.94;23.63;99675.91;5033670;28;831;-61
2021/08/20 13:02:30;;;;;;;;;;;;;;;34.34;23.84;99675.34;5033517;28;925;-60
2021/08/20 13:04:56;;;;;;;;;;;;;;;32.64;25.68;99679.56;5033478;28;1882;-62
2021/08/20 13:07:23;;;;;;;;;;;;;;;31.50;27.15;99677.81;5033396;28;850;-62
2021/08/20 13:09:49;;;;;;;;;;;;;;;30.47;28.21;99680.31;5033492;28;795;-62
2021/08/20 13:12:16;;;;;;;;;;;;;;;30.03;29.79;99670.38;5033389;28;839;-61
2021/08/20 13:14:43;;;;;;;;;;;;;;;29.40;30.49;99676.16;5033300;28;964;-62
2021/08/20 13:17:09;;;;;;;;;;;;;;;28.77;31.97;99666.78;5012126;28;1334;-62
2021/08/20 13:19:36;;;;;;;;;;;;;;;28.38;32.57;99667.91;5013557;28;901;-62